sensor_id;sensor_type;location;lat;lon;timestamp;temperature;humidity
30280;DHT22;17097;50.916;5.344;2022-11-23T00:00:06;10.60;99.90
30280;DHT22;17097;50.916;5.344;2022-11-23T00:02:32;10.40;99.90
30280;DHT22;17097;50.916;5.344;2022-11-23T00:05:01;10.40;99.90
30280;DHT22;17097;50.916;5.344;2022-11-23T00:07:27;10.30;99.90
30280;DHT22;17097;50.916;5.344;2022-11-23T00:09:55;10.30;99.90
30280;DHT22;17097;50.916;5.344;2022-11-23T00:12:21;10.30;99.90
30280;DHT22;17097;50.916;5.344;2022-11-23T00:14:46;10.40;99.90
30280;DHT22;17097;50.916;5.344;2022-11-23T00:17:12;10.50;99.90
30280;DHT22;17097;50.916;5.344;2022-11-23T00:19:37;10.60;99.90
30280;DHT22;17097;50.916;5.344;2022-11-23T00:22:05;10.50;99.90
30280;DHT22;17097;50.916;5.344;2022-11-23T00:24:31;10.60;99.90
30280;DHT22;17097;50.916;5.344;2022-11-23T00:26:57;10.60;99.90
30280;DHT22;17097;50.916;5.344;2022-11-23T00:29:23;10.50;99.90
30280;DHT22;17097;50.916;5.344;2022-11-23T00:31:49;10.50;99.90
30280;DHT22;17097;50.916;5.344;2022-11-23T00:34:19;10.40;99.90
30280;DHT22;17097;50.916;5.344;2022-11-23T00:36:45;10.40;99.90
30280;DHT22;17097;50.916;5.344;2022-11-23T00:39:11;10.50;99.90
30280;DHT22;17097;50.916;5.344;2022-11-23T00:41:37;10.50;99.90
30280;DHT22;17097;50.916;5.344;2022-11-23T00:44:03;10.50;99.90
30280;DHT22;17097;50.916;5.344;2022-11-23T00:46:29;10.50;99.90
30280;DHT22;17097;50.916;5.344;2022-11-23T00:48:56;10.40;99.90
30280;DHT22;17097;50.916;5.344;2022-11-23T00:51:27;10.30;99.90
30280;DHT22;17097;50.916;5.344;2022-11-23T00:53:54;10.20;99.90
30280;DHT22;17097;50.916;5.344;2022-11-23T00:56:22;10.20;99.90
30280;DHT22;17097;50.916;5.344;2022-11-23T00:58:48;10.30;99.90
30280;DHT22;17097;50.916;5.344;2022-11-23T01:01:15;10.30;99.90
30280;DHT22;17097;50.916;5.344;2022-11-23T01:03:43;10.20;99.90
30280;DHT22;17097;50.916;5.344;2022-11-23T01:06:11;10.20;99.90
30280;DHT22;17097;50.916;5.344;2022-11-23T01:08:40;10.30;99.90
30280;DHT22;17097;50.916;5.344;2022-11-23T01:11:08;10.10;99.90
30280;DHT22;17097;50.916;5.344;2022-11-23T01:13:39;10.10;99.90
30280;DHT22;17097;50.916;5.344;2022-11-23T01:16:20;9.90;99.90
30280;DHT22;17097;50.916;5.344;2022-11-23T01:19:00;9.90;99.90
30280;DHT22;17097;50.916;5.344;2022-11-23T01:21:28;10.10;99.90
30280;DHT22;17097;50.916;5.344;2022-11-23T01:23:55;10.00;99.90
30280;DHT22;17097;50.916;5.344;2022-11-23T01:26:22;10.10;99.90
30280;DHT22;17097;50.916;5.344;2022-11-23T01:28:48;10.20;99.90
30280;DHT22;17097;50.916;5.344;2022-11-23T01:31:19;10.20;99.90
30280;DHT22;17097;50.916;5.344;2022-11-23T01:33:46;10.20;99.90
30280;DHT22;17097;50.916;5.344;2022-11-23T01:36:20;10.20;99.90
30280;DHT22;17097;50.916;5.344;2022-11-23T01:38:47;10.10;99.90
30280;DHT22;17097;50.916;5.344;2022-11-23T01:41:15;10.20;99.90
30280;DHT22;17097;50.916;5.344;2022-11-23T01:43:42;10.20;99.90
30280;DHT22;17097;50.916;5.344;2022-11-23T01:46:08;10.10;99.90
30280;DHT22;17097;50.916;5.344;2022-11-23T01:51:34;10.30;99.90
30280;DHT22;17097;50.916;5.344;2022-11-23T01:54:09;10.30;99.90
30280;DHT22;17097;50.916;5.344;2022-11-23T01:56:39;10.30;99.90
30280;DHT22;17097;50.916;5.344;2022-11-23T01:59:10;10.30;99.90
30280;DHT22;17097;50.916;5.344;2022-11-23T02:01:37;10.20;99.90
30280;DHT22;17097;50.916;5.344;2022-11-23T02:04:05;10.20;99.90
30280;DHT22;17097;50.916;5.344;2022-11-23T02:06:32;10.20;99.90
30280;DHT22;17097;50.916;5.344;2022-11-23T02:08:59;10.30;99.90
30280;DHT22;17097;50.916;5.344;2022-11-23T02:11:25;10.20;99.90
30280;DHT22;17097;50.916;5.344;2022-11-23T02:13:53;10.20;99.90
30280;DHT22;17097;50.916;5.344;2022-11-23T02:16:21;10.20;99.90
30280;DHT22;17097;50.916;5.344;2022-11-23T02:18:48;10.30;99.90
30280;DHT22;17097;50.916;5.344;2022-11-23T02:21:15;10.30;99.90
30280;DHT22;17097;50.916;5.344;2022-11-23T02:23:46;10.20;99.90
30280;DHT22;17097;50.916;5.344;2022-11-23T02:26:41;10.10;99.90
30280;DHT22;17097;50.916;5.344;2022-11-23T02:29:26;10.10;99.90
30280;DHT22;17097;50.916;5.344;2022-11-23T02:31:53;10.00;99.90
30280;DHT22;17097;50.916;5.344;2022-11-23T02:34:21;10.10;99.90
30280;DHT22;17097;50.916;5.344;2022-11-23T02:36:55;10.10;99.90
30280;DHT22;17097;50.916;5.344;2022-11-23T02:39:28;10.30;99.90
30280;DHT22;17097;50.916;5.344;2022-11-23T02:41:55;10.20;99.90
30280;DHT22;17097;50.916;5.344;2022-11-23T02:47:08;10.20;99.90
30280;DHT22;17097;50.916;5.344;2022-11-23T02:49:34;10.00;99.90
30280;DHT22;17097;50.916;5.344;2022-11-23T02:52:03;10.10;99.90
30280;DHT22;17097;50.916;5.344;2022-11-23T02:54:29;10.10;99.90
30280;DHT22;17097;50.916;5.344;2022-11-23T02:56:54;10.20;99.90
30280;DHT22;17097;50.916;5.344;2022-11-23T02:59:20;10.10;99.90
30280;DHT22;17097;50.916;5.344;2022-11-23T03:01:47;10.10;99.90
30280;DHT22;17097;50.916;5.344;2022-11-23T03:04:13;10.10;99.90
30280;DHT22;17097;50.916;5.344;2022-11-23T03:06:40;10.10;99.90
30280;DHT22;17097;50.916;5.344;2022-11-23T03:09:05;10.10;99.90
30280;DHT22;17097;50.916;5.344;2022-11-23T03:11:32;10.30;99.90
30280;DHT22;17097;50.916;5.344;2022-11-23T03:13:58;10.30;99.90
30280;DHT22;17097;50.916;5.344;2022-11-23T03:16:23;10.20;99.90
30280;DHT22;17097;50.916;5.344;2022-11-23T03:18:50;10.20;99.90
30280;DHT22;17097;50.916;5.344;2022-11-23T03:21:16;10.10;99.90
30280;DHT22;17097;50.916;5.344;2022-11-23T03:23:42;10.10;99.90
30280;DHT22;17097;50.916;5.344;2022-11-23T03:26:08;10.20;99.90
30280;DHT22;17097;50.916;5.344;2022-11-23T03:28:36;10.10;99.90
30280;DHT22;17097;50.916;5.344;2022-11-23T03:31:01;10.20;99.90
30280;DHT22;17097;50.916;5.344;2022-11-23T03:33:27;10.20;99.90
30280;DHT22;17097;50.916;5.344;2022-11-23T03:35:55;10.20;99.90
30280;DHT22;17097;50.916;5.344;2022-11-23T03:38:21;10.00;99.90
30280;DHT22;17097;50.916;5.344;2022-11-23T03:40:47;10.00;99.90
30280;DHT22;17097;50.916;5.344;2022-11-23T03:43:13;10.00;99.90
30280;DHT22;17097;50.916;5.344;2022-11-23T03:45:40;9.90;99.90
30280;DHT22;17097;50.916;5.344;2022-11-23T03:48:07;10.00;99.90
30280;DHT22;17097;50.916;5.344;2022-11-23T03:50:33;10.00;99.90
30280;DHT22;17097;50.916;5.344;2022-11-23T03:52:59;10.00;99.90
30280;DHT22;17097;50.916;5.344;2022-11-23T03:55:28;10.10;99.90
30280;DHT22;17097;50.916;5.344;2022-11-23T03:57:56;10.00;99.90
30280;DHT22;17097;50.916;5.344;2022-11-23T04:00:25;10.00;99.90
30280;DHT22;17097;50.916;5.344;2022-11-23T04:02:51;10.10;99.90
30280;DHT22;17097;50.916;5.344;2022-11-23T04:05:17;10.10;99.90
30280;DHT22;17097;50.916;5.344;2022-11-23T04:07:42;9.90;99.90
30280;DHT22;17097;50.916;5.344;2022-11-23T04:10:08;9.90;99.90
30280;DHT22;17097;50.916;5.344;2022-11-23T04:12:35;9.90;99.90
30280;DHT22;17097;50.916;5.344;2022-11-23T04:15:00;9.90;99.90
30280;DHT22;17097;50.916;5.344;2022-11-23T04:17:26;9.90;99.90
30280;DHT22;17097;50.916;5.344;2022-11-23T04:19:52;9.80;99.90
30280;DHT22;17097;50.916;5.344;2022-11-23T04:22:18;9.90;99.90
30280;DHT22;17097;50.916;5.344;2022-11-23T04:24:44;9.90;99.90
30280;DHT22;17097;50.916;5.344;2022-11-23T04:27:10;10.00;99.90
30280;DHT22;17097;50.916;5.344;2022-11-23T04:29:36;10.00;99.90
30280;DHT22;17097;50.916;5.344;2022-11-23T04:32:02;10.00;99.90
30280;DHT22;17097;50.916;5.344;2022-11-23T04:34:27;10.00;99.90
30280;DHT22;17097;50.916;5.344;2022-11-23T04:36:53;10.00;99.90
30280;DHT22;17097;50.916;5.344;2022-11-23T04:39:21;9.90;99.90
30280;DHT22;17097;50.916;5.344;2022-11-23T04:41:47;9.90;99.90
30280;DHT22;17097;50.916;5.344;2022-11-23T04:44:13;10.00;99.90
30280;DHT22;17097;50.916;5.344;2022-11-23T04:46:39;10.10;99.90
30280;DHT22;17097;50.916;5.344;2022-11-23T04:49:05;10.20;99.90
30280;DHT22;17097;50.916;5.344;2022-11-23T04:51:31;10.10;99.90
30280;DHT22;17097;50.916;5.344;2022-11-23T04:53:59;10.40;99.90
30280;DHT22;17097;50.916;5.344;2022-11-23T04:56:24;10.20;99.90
30280;DHT22;17097;50.916;5.344;2022-11-23T04:58:50;10.10;99.90
30280;DHT22;17097;50.916;5.344;2022-11-23T05:01:16;10.00;99.90
30280;DHT22;17097;50.916;5.344;2022-11-23T05:03:42;10.00;99.90
30280;DHT22;17097;50.916;5.344;2022-11-23T05:06:08;10.00;99.90
30280;DHT22;17097;50.916;5.344;2022-11-23T05:08:34;9.90;99.90
30280;DHT22;17097;50.916;5.344;2022-11-23T05:11:00;10.10;99.90
30280;DHT22;17097;50.916;5.344;2022-11-23T05:13:26;10.10;99.90
30280;DHT22;17097;50.916;5.344;2022-11-23T05:15:52;10.20;99.90
30280;DHT22;17097;50.916;5.344;2022-11-23T05:18:18;10.20;99.90
30280;DHT22;17097;50.916;5.344;2022-11-23T05:20:46;10.10;99.90
30280;DHT22;17097;50.916;5.344;2022-11-23T05:23:12;10.10;99.90
30280;DHT22;17097;50.916;5.344;2022-11-23T05:25:40;10.20;99.90
30280;DHT22;17097;50.916;5.344;2022-11-23T05:28:06;10.10;99.90
30280;DHT22;17097;50.916;5.344;2022-11-23T05:30:32;10.20;99.90
30280;DHT22;17097;50.916;5.344;2022-11-23T05:33:02;10.20;99.90
30280;DHT22;17097;50.916;5.344;2022-11-23T05:35:30;10.20;99.90
30280;DHT22;17097;50.916;5.344;2022-11-23T05:37:55;10.20;99.90
30280;DHT22;17097;50.916;5.344;2022-11-23T05:40:21;10.20;99.90
30280;DHT22;17097;50.916;5.344;2022-11-23T05:42:47;10.40;99.90
30280;DHT22;17097;50.916;5.344;2022-11-23T05:45:13;10.30;99.90
30280;DHT22;17097;50.916;5.344;2022-11-23T05:47:38;10.50;99.90
30280;DHT22;17097;50.916;5.344;2022-11-23T05:50:05;10.40;99.90
30280;DHT22;17097;50.916;5.344;2022-11-23T05:52:31;10.30;99.90
30280;DHT22;17097;50.916;5.344;2022-11-23T05:54:57;10.10;99.90
30280;DHT22;17097;50.916;5.344;2022-11-23T05:57:23;10.20;99.90
30280;DHT22;17097;50.916;5.344;2022-11-23T05:59:48;10.30;99.90
30280;DHT22;17097;50.916;5.344;2022-11-23T06:02:14;10.10;99.90
30280;DHT22;17097;50.916;5.344;2022-11-23T06:04:40;10.00;99.90
30280;DHT22;17097;50.916;5.344;2022-11-23T06:07:05;10.00;99.90
30280;DHT22;17097;50.916;5.344;2022-11-23T06:09:31;9.90;99.90
30280;DHT22;17097;50.916;5.344;2022-11-23T06:11:57;10.10;99.90
30280;DHT22;17097;50.916;5.344;2022-11-23T06:14:23;10.00;99.90
30280;DHT22;17097;50.916;5.344;2022-11-23T06:16:49;9.90;99.90
30280;DHT22;17097;50.916;5.344;2022-11-23T06:19:15;9.80;99.90
30280;DHT22;17097;50.916;5.344;2022-11-23T06:21:43;9.70;99.90
30280;DHT22;17097;50.916;5.344;2022-11-23T06:24:10;9.60;99.90
30280;DHT22;17097;50.916;5.344;2022-11-23T06:26:40;9.50;99.90
30280;DHT22;17097;50.916;5.344;2022-11-23T06:29:07;9.40;99.90
30280;DHT22;17097;50.916;5.344;2022-11-23T06:31:33;9.40;99.90
30280;DHT22;17097;50.916;5.344;2022-11-23T06:33:59;9.40;99.90
30280;DHT22;17097;50.916;5.344;2022-11-23T06:36:25;9.50;99.90
30280;DHT22;17097;50.916;5.344;2022-11-23T06:38:50;9.60;99.90
30280;DHT22;17097;50.916;5.344;2022-11-23T06:41:17;9.50;99.90
30280;DHT22;17097;50.916;5.344;2022-11-23T06:43:47;9.60;99.90
30280;DHT22;17097;50.916;5.344;2022-11-23T06:46:17;9.70;99.90
30280;DHT22;17097;50.916;5.344;2022-11-23T06:48:43;9.70;99.90
30280;DHT22;17097;50.916;5.344;2022-11-23T06:51:09;9.70;99.90
30280;DHT22;17097;50.916;5.344;2022-11-23T06:53:35;9.70;99.90
30280;DHT22;17097;50.916;5.344;2022-11-23T06:56:01;9.60;99.90
30280;DHT22;17097;50.916;5.344;2022-11-23T06:58:27;9.50;99.90
30280;DHT22;17097;50.916;5.344;2022-11-23T07:00:52;9.50;99.90
30280;DHT22;17097;50.916;5.344;2022-11-23T07:03:23;9.50;99.90
30280;DHT22;17097;50.916;5.344;2022-11-23T07:05:49;9.60;99.90
30280;DHT22;17097;50.916;5.344;2022-11-23T07:08:17;9.70;99.90
30280;DHT22;17097;50.916;5.344;2022-11-23T07:10:43;9.40;99.90
30280;DHT22;17097;50.916;5.344;2022-11-23T07:13:10;9.30;99.90
30280;DHT22;17097;50.916;5.344;2022-11-23T07:15:37;9.30;99.90
30280;DHT22;17097;50.916;5.344;2022-11-23T07:18:03;9.40;99.90
30280;DHT22;17097;50.916;5.344;2022-11-23T07:20:29;9.40;99.90
30280;DHT22;17097;50.916;5.344;2022-11-23T07:23:04;9.40;99.90
30280;DHT22;17097;50.916;5.344;2022-11-23T07:25:34;9.30;99.90
30280;DHT22;17097;50.916;5.344;2022-11-23T07:28:01;9.30;99.90
30280;DHT22;17097;50.916;5.344;2022-11-23T07:30:29;9.30;99.90
30280;DHT22;17097;50.916;5.344;2022-11-23T07:32:59;9.10;99.90
30280;DHT22;17097;50.916;5.344;2022-11-23T07:35:25;9.20;99.90
30280;DHT22;17097;50.916;5.344;2022-11-23T07:37:53;9.20;99.90
30280;DHT22;17097;50.916;5.344;2022-11-23T07:40:18;9.10;99.90
30280;DHT22;17097;50.916;5.344;2022-11-23T07:42:44;9.20;99.90
30280;DHT22;17097;50.916;5.344;2022-11-23T07:45:10;9.20;99.90
30280;DHT22;17097;50.916;5.344;2022-11-23T07:47:36;9.20;99.90
30280;DHT22;17097;50.916;5.344;2022-11-23T07:50:03;9.30;99.90
30280;DHT22;17097;50.916;5.344;2022-11-23T07:52:29;9.40;99.90
30280;DHT22;17097;50.916;5.344;2022-11-23T07:54:54;9.50;99.90
30280;DHT22;17097;50.916;5.344;2022-11-23T07:57:20;9.50;99.90
30280;DHT22;17097;50.916;5.344;2022-11-23T07:59:46;9.40;99.90
30280;DHT22;17097;50.916;5.344;2022-11-23T08:02:13;9.80;99.90
30280;DHT22;17097;50.916;5.344;2022-11-23T08:04:39;10.30;99.90
30280;DHT22;17097;50.916;5.344;2022-11-23T08:07:05;11.00;99.90
30280;DHT22;17097;50.916;5.344;2022-11-23T08:09:31;11.60;99.90
30280;DHT22;17097;50.916;5.344;2022-11-23T08:11:57;12.30;99.90
30280;DHT22;17097;50.916;5.344;2022-11-23T08:14:30;12.60;99.90
30280;DHT22;17097;50.916;5.344;2022-11-23T08:16:57;12.80;99.90
30280;DHT22;17097;50.916;5.344;2022-11-23T08:19:23;12.60;99.90
30280;DHT22;17097;50.916;5.344;2022-11-23T08:21:49;12.70;99.90
30280;DHT22;17097;50.916;5.344;2022-11-23T08:24:15;12.20;99.90
30280;DHT22;17097;50.916;5.344;2022-11-23T08:26:41;11.80;99.90
30280;DHT22;17097;50.916;5.344;2022-11-23T08:29:06;11.80;99.90
30280;DHT22;17097;50.916;5.344;2022-11-23T08:31:33;11.90;99.90
30280;DHT22;17097;50.916;5.344;2022-11-23T08:34:00;11.50;99.90
30280;DHT22;17097;50.916;5.344;2022-11-23T08:36:26;11.40;99.90
30280;DHT22;17097;50.916;5.344;2022-11-23T08:38:52;11.40;99.90
30280;DHT22;17097;50.916;5.344;2022-11-23T08:41:19;11.20;99.90
30280;DHT22;17097;50.916;5.344;2022-11-23T08:43:48;11.40;99.90
30280;DHT22;17097;50.916;5.344;2022-11-23T08:46:17;11.50;99.90
30280;DHT22;17097;50.916;5.344;2022-11-23T08:48:44;11.80;99.90
30280;DHT22;17097;50.916;5.344;2022-11-23T08:51:10;11.70;99.90
30280;DHT22;17097;50.916;5.344;2022-11-23T08:53:37;11.70;99.90
30280;DHT22;17097;50.916;5.344;2022-11-23T08:56:04;12.20;99.90
30280;DHT22;17097;50.916;5.344;2022-11-23T08:58:30;12.20;99.90
30280;DHT22;17097;50.916;5.344;2022-11-23T09:00:56;12.30;99.90
30280;DHT22;17097;50.916;5.344;2022-11-23T09:03:22;12.70;99.90
30280;DHT22;17097;50.916;5.344;2022-11-23T09:05:50;13.30;99.90
30280;DHT22;17097;50.916;5.344;2022-11-23T09:08:16;13.60;99.90
30280;DHT22;17097;50.916;5.344;2022-11-23T09:10:43;13.90;99.90
30280;DHT22;17097;50.916;5.344;2022-11-23T09:13:08;14.40;99.90
30280;DHT22;17097;50.916;5.344;2022-11-23T09:15:34;14.90;99.90
30280;DHT22;17097;50.916;5.344;2022-11-23T09:18:00;13.90;99.90
30280;DHT22;17097;50.916;5.344;2022-11-23T09:20:29;13.60;99.90
30280;DHT22;17097;50.916;5.344;2022-11-23T09:22:55;13.80;99.90
30280;DHT22;17097;50.916;5.344;2022-11-23T09:25:21;14.20;99.90
30280;DHT22;17097;50.916;5.344;2022-11-23T09:27:48;14.90;99.90
30280;DHT22;17097;50.916;5.344;2022-11-23T09:30:14;15.10;99.90
30280;DHT22;17097;50.916;5.344;2022-11-23T09:32:41;15.70;99.90
30280;DHT22;17097;50.916;5.344;2022-11-23T09:35:07;16.20;99.90
30280;DHT22;17097;50.916;5.344;2022-11-23T09:37:33;16.00;99.90
30280;DHT22;17097;50.916;5.344;2022-11-23T09:40:01;16.60;99.90
30280;DHT22;17097;50.916;5.344;2022-11-23T09:42:57;17.50;99.90
30280;DHT22;17097;50.916;5.344;2022-11-23T09:51:19;18.80;99.60
30280;DHT22;17097;50.916;5.344;2022-11-23T09:53:55;19.20;99.70
30280;DHT22;17097;50.916;5.344;2022-11-23T09:56:34;19.60;98.20
30280;DHT22;17097;50.916;5.344;2022-11-23T10:01:54;19.90;96.80
30280;DHT22;17097;50.916;5.344;2022-11-23T10:04:20;19.50;97.20
30280;DHT22;17097;50.916;5.344;2022-11-23T10:10:13;19.30;98.20
30280;DHT22;17097;50.916;5.344;2022-11-23T10:18:33;17.80;99.90
30280;DHT22;17097;50.916;5.344;2022-11-23T10:24:16;17.40;99.90
30280;DHT22;17097;50.916;5.344;2022-11-23T10:26:50;18.00;99.90
30280;DHT22;17097;50.916;5.344;2022-11-23T10:29:36;17.90;99.90
30280;DHT22;17097;50.916;5.344;2022-11-23T10:32:11;16.90;99.90
30280;DHT22;17097;50.916;5.344;2022-11-23T10:37:31;16.30;99.90
30280;DHT22;17097;50.916;5.344;2022-11-23T10:39:58;16.20;99.90
30280;DHT22;17097;50.916;5.344;2022-11-23T10:42:37;15.90;99.90
30280;DHT22;17097;50.916;5.344;2022-11-23T10:45:21;15.30;99.90
30280;DHT22;17097;50.916;5.344;2022-11-23T10:47:56;14.90;99.90
30280;DHT22;17097;50.916;5.344;2022-11-23T10:50:27;14.10;99.90
30280;DHT22;17097;50.916;5.344;2022-11-23T10:53:17;14.30;99.90
30280;DHT22;17097;50.916;5.344;2022-11-23T10:55:56;14.40;99.90
30280;DHT22;17097;50.916;5.344;2022-11-23T10:58:26;14.70;99.90
30280;DHT22;17097;50.916;5.344;2022-11-23T11:01:13;14.90;99.90
30280;DHT22;17097;50.916;5.344;2022-11-23T11:03:39;14.90;99.90
30280;DHT22;17097;50.916;5.344;2022-11-23T11:06:08;14.90;99.90
30280;DHT22;17097;50.916;5.344;2022-11-23T11:08:47;14.60;99.90
30280;DHT22;17097;50.916;5.344;2022-11-23T11:11:27;14.80;99.90
30280;DHT22;17097;50.916;5.344;2022-11-23T11:14:15;15.00;99.90
30280;DHT22;17097;50.916;5.344;2022-11-23T11:16:51;14.90;99.90
30280;DHT22;17097;50.916;5.344;2022-11-23T11:21:52;14.60;99.90
30280;DHT22;17097;50.916;5.344;2022-11-23T11:24:32;14.50;99.90
30280;DHT22;17097;50.916;5.344;2022-11-23T11:27:06;14.60;99.90
30280;DHT22;17097;50.916;5.344;2022-11-23T11:29:46;14.50;99.90
30280;DHT22;17097;50.916;5.344;2022-11-23T11:37:50;14.70;99.90
30280;DHT22;17097;50.916;5.344;2022-11-23T11:40:27;15.00;99.90
30280;DHT22;17097;50.916;5.344;2022-11-23T11:42:56;14.90;99.90
30280;DHT22;17097;50.916;5.344;2022-11-23T11:45:24;14.80;99.90
30280;DHT22;17097;50.916;5.344;2022-11-23T11:50:28;14.30;99.90
30280;DHT22;17097;50.916;5.344;2022-11-23T11:53:01;14.10;99.90
30280;DHT22;17097;50.916;5.344;2022-11-23T11:58:14;14.10;99.90
30280;DHT22;17097;50.916;5.344;2022-11-23T12:00:41;14.00;99.90
30280;DHT22;17097;50.916;5.344;2022-11-23T12:03:22;14.20;99.90
30280;DHT22;17097;50.916;5.344;2022-11-23T12:05:52;14.10;99.90
30280;DHT22;17097;50.916;5.344;2022-11-23T12:10:58;13.70;99.90
30280;DHT22;17097;50.916;5.344;2022-11-23T12:13:28;13.40;99.90
30280;DHT22;17097;50.916;5.344;2022-11-23T12:30:25;13.30;99.90
30280;DHT22;17097;50.916;5.344;2022-11-23T12:33:11;13.30;99.90
30280;DHT22;17097;50.916;5.344;2022-11-23T12:48:57;13.00;99.90
30280;DHT22;17097;50.916;5.344;2022-11-23T12:54:21;13.10;99.90
30280;DHT22;17097;50.916;5.344;2022-11-23T12:59:26;12.90;99.90
30280;DHT22;17097;50.916;5.344;2022-11-23T13:02:00;12.90;99.90
30280;DHT22;17097;50.916;5.344;2022-11-23T13:08:07;12.60;99.90
30280;DHT22;17097;50.916;5.344;2022-11-23T13:13:41;12.60;99.90
30280;DHT22;17097;50.916;5.344;2022-11-23T13:16:52;12.40;99.90
30280;DHT22;17097;50.916;5.344;2022-11-23T13:21:57;12.50;99.90
30280;DHT22;17097;50.916;5.344;2022-11-23T13:24:31;12.60;99.90
30280;DHT22;17097;50.916;5.344;2022-11-23T13:40:41;12.50;99.90
30280;DHT22;17097;50.916;5.344;2022-11-23T13:46:18;12.40;99.90
30280;DHT22;17097;50.916;5.344;2022-11-23T13:48:49;12.60;99.90
30280;DHT22;17097;50.916;5.344;2022-11-23T13:51:25;12.40;99.90
30280;DHT22;17097;50.916;5.344;2022-11-23T13:56:37;12.00;99.90
30280;DHT22;17097;50.916;5.344;2022-11-23T14:04:36;11.80;99.90
30280;DHT22;17097;50.916;5.344;2022-11-23T14:10:05;11.70;99.90
30280;DHT22;17097;50.916;5.344;2022-11-23T14:13:01;11.60;99.90
30280;DHT22;17097;50.916;5.344;2022-11-23T14:15:32;11.40;99.90
30280;DHT22;17097;50.916;5.344;2022-11-23T14:18:37;11.30;99.90
30280;DHT22;17097;50.916;5.344;2022-11-23T14:21:11;11.20;99.90
30280;DHT22;17097;50.916;5.344;2022-11-23T14:35:32;11.10;99.90
30280;DHT22;17097;50.916;5.344;2022-11-23T14:38:36;11.10;99.90
30280;DHT22;17097;50.916;5.344;2022-11-23T14:41:41;11.20;99.90
30280;DHT22;17097;50.916;5.344;2022-11-23T14:44:09;11.10;99.90
30280;DHT22;17097;50.916;5.344;2022-11-23T14:47:04;11.00;99.90
30280;DHT22;17097;50.916;5.344;2022-11-23T14:49:30;10.90;99.90
30280;DHT22;17097;50.916;5.344;2022-11-23T14:51:56;10.90;99.90
30280;DHT22;17097;50.916;5.344;2022-11-23T14:54:22;10.90;99.90
30280;DHT22;17097;50.916;5.344;2022-11-23T14:56:49;10.80;99.90
30280;DHT22;17097;50.916;5.344;2022-11-23T14:59:31;10.90;99.90
30280;DHT22;17097;50.916;5.344;2022-11-23T15:02:01;10.70;99.90
30280;DHT22;17097;50.916;5.344;2022-11-23T15:04:30;10.60;99.90
30280;DHT22;17097;50.916;5.344;2022-11-23T15:07:23;10.60;99.90
30280;DHT22;17097;50.916;5.344;2022-11-23T15:10:05;10.50;99.90
30280;DHT22;17097;50.916;5.344;2022-11-23T15:12:54;10.60;99.90
30280;DHT22;17097;50.916;5.344;2022-11-23T15:15:20;10.60;99.90
30280;DHT22;17097;50.916;5.344;2022-11-23T15:17:57;10.50;99.90
30280;DHT22;17097;50.916;5.344;2022-11-23T15:20:37;10.30;99.90
30280;DHT22;17097;50.916;5.344;2022-11-23T15:23:05;10.30;99.90
30280;DHT22;17097;50.916;5.344;2022-11-23T15:25:31;10.60;99.90
30280;DHT22;17097;50.916;5.344;2022-11-23T15:27:57;10.80;99.90
30280;DHT22;17097;50.916;5.344;2022-11-23T15:30:28;10.80;99.90
30280;DHT22;17097;50.916;5.344;2022-11-23T15:35:33;10.40;99.90
30280;DHT22;17097;50.916;5.344;2022-11-23T15:38:01;10.20;99.90
30280;DHT22;17097;50.916;5.344;2022-11-23T15:40:31;10.30;99.90
30280;DHT22;17097;50.916;5.344;2022-11-23T15:42:57;10.30;99.90
30280;DHT22;17097;50.916;5.344;2022-11-23T15:45:38;10.50;99.90
30280;DHT22;17097;50.916;5.344;2022-11-23T15:48:26;10.60;99.90
30280;DHT22;17097;50.916;5.344;2022-11-23T15:50:56;10.70;99.90
30280;DHT22;17097;50.916;5.344;2022-11-23T15:56:04;10.40;99.90
30280;DHT22;17097;50.916;5.344;2022-11-23T15:58:30;10.30;99.90
30280;DHT22;17097;50.916;5.344;2022-11-23T16:01:11;10.30;99.90
30280;DHT22;17097;50.916;5.344;2022-11-23T16:03:49;10.20;99.90
30280;DHT22;17097;50.916;5.344;2022-11-23T16:06:41;10.30;99.90
30280;DHT22;17097;50.916;5.344;2022-11-23T16:09:37;10.20;99.90
30280;DHT22;17097;50.916;5.344;2022-11-23T16:12:22;10.30;99.90
30280;DHT22;17097;50.916;5.344;2022-11-23T16:14:48;10.30;99.90
30280;DHT22;17097;50.916;5.344;2022-11-23T16:17:25;10.40;99.90
30280;DHT22;17097;50.916;5.344;2022-11-23T16:19:56;10.50;99.90
30280;DHT22;17097;50.916;5.344;2022-11-23T16:24:58;10.40;99.90
30280;DHT22;17097;50.916;5.344;2022-11-23T16:27:25;10.30;99.90
30280;DHT22;17097;50.916;5.344;2022-11-23T16:29:51;10.30;99.90
30280;DHT22;17097;50.916;5.344;2022-11-23T16:34:50;10.20;99.90
30280;DHT22;17097;50.916;5.344;2022-11-23T16:37:17;10.10;99.90
30280;DHT22;17097;50.916;5.344;2022-11-23T16:39:43;10.10;99.90
30280;DHT22;17097;50.916;5.344;2022-11-23T16:42:15;10.10;99.90
30280;DHT22;17097;50.916;5.344;2022-11-23T16:44:42;10.10;99.90
30280;DHT22;17097;50.916;5.344;2022-11-23T16:47:22;10.10;99.90
30280;DHT22;17097;50.916;5.344;2022-11-23T16:49:49;10.10;99.90
30280;DHT22;17097;50.916;5.344;2022-11-23T16:52:15;10.10;99.90
30280;DHT22;17097;50.916;5.344;2022-11-23T16:54:43;10.00;99.90
30280;DHT22;17097;50.916;5.344;2022-11-23T16:57:35;9.90;99.90
30280;DHT22;17097;50.916;5.344;2022-11-23T17:00:04;9.80;99.90
30280;DHT22;17097;50.916;5.344;2022-11-23T17:02:30;9.80;99.90
30280;DHT22;17097;50.916;5.344;2022-11-23T17:04:56;9.70;99.90
30280;DHT22;17097;50.916;5.344;2022-11-23T17:07:22;9.70;99.90
30280;DHT22;17097;50.916;5.344;2022-11-23T17:09:47;9.80;99.90
30280;DHT22;17097;50.916;5.344;2022-11-23T17:12:17;9.70;99.90
30280;DHT22;17097;50.916;5.344;2022-11-23T17:14:48;9.60;99.90
30280;DHT22;17097;50.916;5.344;2022-11-23T17:17:19;9.70;99.90
30280;DHT22;17097;50.916;5.344;2022-11-23T17:19:47;9.70;99.90
30280;DHT22;17097;50.916;5.344;2022-11-23T17:22:14;9.70;99.90
30280;DHT22;17097;50.916;5.344;2022-11-23T17:24:40;9.60;99.90
30280;DHT22;17097;50.916;5.344;2022-11-23T17:27:13;9.60;99.90
30280;DHT22;17097;50.916;5.344;2022-11-23T17:29:40;9.50;99.90
30280;DHT22;17097;50.916;5.344;2022-11-23T17:32:10;9.50;99.90
30280;DHT22;17097;50.916;5.344;2022-11-23T17:34:36;9.50;99.90
30280;DHT22;17097;50.916;5.344;2022-11-23T17:37:02;9.60;99.90
30280;DHT22;17097;50.916;5.344;2022-11-23T17:39:28;9.60;99.90
30280;DHT22;17097;50.916;5.344;2022-11-23T17:41:54;9.40;99.90
30280;DHT22;17097;50.916;5.344;2022-11-23T17:44:21;9.50;99.90
30280;DHT22;17097;50.916;5.344;2022-11-23T17:46:48;9.50;99.90
30280;DHT22;17097;50.916;5.344;2022-11-23T17:49:17;9.50;99.90
30280;DHT22;17097;50.916;5.344;2022-11-23T17:51:44;9.50;99.90
30280;DHT22;17097;50.916;5.344;2022-11-23T17:54:10;9.50;99.90
30280;DHT22;17097;50.916;5.344;2022-11-23T17:56:36;9.50;99.90
30280;DHT22;17097;50.916;5.344;2022-11-23T17:59:03;9.50;99.90
30280;DHT22;17097;50.916;5.344;2022-11-23T18:01:29;9.50;99.90
30280;DHT22;17097;50.916;5.344;2022-11-23T18:03:54;9.50;99.90
30280;DHT22;17097;50.916;5.344;2022-11-23T18:06:23;9.40;99.90